Celik 1 — 9HKY9 — position and weather

sailwx.info

Track history (hours):
 
Tides and Currents Weather Stations Pressure Air Temp Water Temp Dewpoint Dewpoint Depression Visibility Wind Speed Wind Dir Waves Ship Positions

Celik 1

Last reported at 2014-Sep-16 16:34 UTC. Time now 2014-Sep-16 17:32 UTC.
Position N 35°58' E 024°58'.

Length 121 m; draft 6.8 m.

Type: Cargo ship. MMSI: 249114000.

Date/timePositionNaut miles runAvg speedWind from/ knotsBaromVisibWave heightAir tempDewpointWater temp
2014-Sep-16 16:34N 35°58' E 024°58'10 9.8
2014-Sep-16 15:34N 35°57' E 024°46'10 9.8
2014-Sep-16 14:33N 35°55' E 024°34'472 9.8
2014-Sep-14 14:17N 34°47' E 015°02'17 9.7
2014-Sep-14 12:31N 34°45' E 014°41'9 9.6
2014-Sep-14 11:34N 34°43' E 014°30'10 9.8
2014-Sep-14 10:34N 34°42' E 014°18'10 9.8
2014-Sep-14 09:34N 34°41' E 014°06'10 9.9
2014-Sep-14 08:34N 34°39' E 013°54'10 9.8
2014-Sep-14 07:31N 34°38' E 013°42'9 9.8
2014-Sep-14 06:34N 34°37' E 013°31'13 9.7
2014-Sep-14 05:13N 34°35' E 013°15'31 9.8
2014-Sep-14 02:05N 34°22' E 012°41'5 9.8
2014-Sep-14 01:34N 34°20' E 012°35'40 9.5
2014-Sep-13 21:21N 34°08' E 011°49'8 9.6
2014-Sep-13 20:34N 34°06' E 011°40'79 2.5
2014-Sep-12 12:32N 33°55' E 010°06'0 0.0
2014-Sep-12 11:32N 33°55' E 010°06'4 0.1
2014-Sep-10 21:15N 33°57' E 010°10'0 0.0
2014-Sep-10 20:33N 33°57' E 010°10'0 0.0
2014-Sep-10 18:33N 33°57' E 010°10'0 0.0
2014-Sep-10 17:33N 33°57' E 010°10'0 0.0
2014-Sep-10 16:33N 33°57' E 010°10'0 0.0
2014-Sep-10 15:30N 33°57' E 010°10'5 2.5
2014-Sep-10 13:33N 33°59' E 010°15'4911.4
2014-Sep-10 09:13N 34°17' E 011°11'3810.3
2014-Sep-10 05:31N 34°33' E 011°53'3010.1
2014-Sep-10 02:33N 35°02' E 011°46'1010.4
2014-Sep-10 01:33N 35°12' E 011°42'1010.5
2014-Sep-10 00:33N 35°22' E 011°39'1110.5
2014-Sep-09 23:33N 35°32' E 011°36'1010.3
2014-Sep-09 22:33N 35°42' E 011°33'1010.0
2014-Sep-09 21:33N 35°52' E 011°30'1110.5
2014-Sep-09 20:34N 36°02' E 011°26'10 9.5
2014-Sep-09 19:31N 36°12' E 011°26'1010.3
2014-Sep-09 18:33N 36°22' E 011°24'1110.6
2014-Sep-09 17:33N 36°32' E 011°23'1010.4
2014-Sep-09 16:34N 36°42' E 011°21'1010.4
2014-Sep-09 15:33N 36°53' E 011°20'1010.4
2014-Sep-09 14:33N 37°03' E 011°19'1110.7
2014-Sep-09 13:33N 37°14' E 011°18'9 9.3
2014-Sep-09 12:33N 37°22' E 011°12'1110.8
2014-Sep-09 11:33N 37°25' E 010°59'7111.1
2014-Sep-09 05:13N 37°27' E 009°30'2311.2
2014-Sep-09 03:09N 37°21' E 009°02'105 3.4
2014-Sep-07 20:29N 36°55' E 006°55'0 0.0
2014-Sep-07 17:29N 36°55' E 006°55'0 0.0
2014-Sep-07 16:29N 36°55' E 006°55'0 0.0
2014-Sep-07 15:23N 36°55' E 006°55'0 0.0
2014-Sep-07 14:20N 36°55' E 006°55'0 0.0
2014-Sep-07 13:29N 36°55' E 006°55'0 0.0
2014-Sep-07 12:32N 36°55' E 006°55'0 0.0
2014-Sep-07 11:23N 36°55' E 006°55'  
Track history (hours):
 
Tides and Currents Weather Stations Pressure Air Temp Water Temp Dewpoint Dewpoint Depression Visibility Wind Speed Wind Dir Waves Ship Positions

Celik 1

Last reported at 2014-Sep-16 16:34 UTC. Time now 2014-Sep-16 17:32 UTC.
Position N 35°58' E 024°58'.

Length 121 m; draft 6.8 m.

Type: Cargo ship. MMSI: 249114000.

Date/timePositionNaut miles runAvg speedWind from/ knotsBaromVisibWave heightAir tempDewpointWater temp
2014-Sep-16 16:34N 35°58' E 024°58'10 9.8
2014-Sep-16 15:34N 35°57' E 024°46'10 9.8
2014-Sep-16 14:33N 35°55' E 024°34'472 9.8
2014-Sep-14 14:17N 34°47' E 015°02'17 9.7
2014-Sep-14 12:31N 34°45' E 014°41'9 9.6
2014-Sep-14 11:34N 34°43' E 014°30'10 9.8
2014-Sep-14 10:34N 34°42' E 014°18'10 9.8
2014-Sep-14 09:34N 34°41' E 014°06'10 9.9
2014-Sep-14 08:34N 34°39' E 013°54'10 9.8
2014-Sep-14 07:31N 34°38' E 013°42'9 9.8
2014-Sep-14 06:34N 34°37' E 013°31'13 9.7
2014-Sep-14 05:13N 34°35' E 013°15'31 9.8
2014-Sep-14 02:05N 34°22' E 012°41'5 9.8
2014-Sep-14 01:34N 34°20' E 012°35'40 9.5
2014-Sep-13 21:21N 34°08' E 011°49'8 9.6
2014-Sep-13 20:34N 34°06' E 011°40'79 2.5
2014-Sep-12 12:32N 33°55' E 010°06'0 0.0
2014-Sep-12 11:32N 33°55' E 010°06'4 0.1
2014-Sep-10 21:15N 33°57' E 010°10'0 0.0
2014-Sep-10 20:33N 33°57' E 010°10'0 0.0
2014-Sep-10 18:33N 33°57' E 010°10'0 0.0
2014-Sep-10 17:33N 33°57' E 010°10'0 0.0
2014-Sep-10 16:33N 33°57' E 010°10'0 0.0
2014-Sep-10 15:30N 33°57' E 010°10'5 2.5
2014-Sep-10 13:33N 33°59' E 010°15'4911.4
2014-Sep-10 09:13N 34°17' E 011°11'3810.3
2014-Sep-10 05:31N 34°33' E 011°53'3010.1
2014-Sep-10 02:33N 35°02' E 011°46'1010.4
2014-Sep-10 01:33N 35°12' E 011°42'1010.5
2014-Sep-10 00:33N 35°22' E 011°39'1110.5
2014-Sep-09 23:33N 35°32' E 011°36'1010.3
2014-Sep-09 22:33N 35°42' E 011°33'1010.0
2014-Sep-09 21:33N 35°52' E 011°30'1110.5
2014-Sep-09 20:34N 36°02' E 011°26'10 9.5
2014-Sep-09 19:31N 36°12' E 011°26'1010.3
2014-Sep-09 18:33N 36°22' E 011°24'1110.6
2014-Sep-09 17:33N 36°32' E 011°23'1010.4
2014-Sep-09 16:34N 36°42' E 011°21'1010.4
2014-Sep-09 15:33N 36°53' E 011°20'1010.4
2014-Sep-09 14:33N 37°03' E 011°19'1110.7
2014-Sep-09 13:33N 37°14' E 011°18'9 9.3
2014-Sep-09 12:33N 37°22' E 011°12'1110.8
2014-Sep-09 11:33N 37°25' E 010°59'7111.1
2014-Sep-09 05:13N 37°27' E 009°30'2311.2
2014-Sep-09 03:09N 37°21' E 009°02'105 3.4
2014-Sep-07 20:29N 36°55' E 006°55'0 0.0
2014-Sep-07 17:29N 36°55' E 006°55'0 0.0
2014-Sep-07 16:29N 36°55' E 006°55'0 0.0
2014-Sep-07 15:23N 36°55' E 006°55'0 0.0
2014-Sep-07 14:20N 36°55' E 006°55'0 0.0
2014-Sep-07 13:29N 36°55' E 006°55'0 0.0
2014-Sep-07 12:32N 36°55' E 006°55'0 0.0
2014-Sep-07 11:23N 36°55' E 006°55'  

Dump ship's entire track history